KPSC/PSC METAR and TAF weather

Enter ICAO airport designator
Station Type Date Time Source
KPSC METAR 2019/05/25 14:53 UTC NOAA

KPSC 251453Z 21006KT 10SM CLR 12/05 A2992 RMK AO2 SLP131 T01220050 50008


Station Type Date Time Source
KPSC Decoded METAR 2019/05/25 14:53 UTC NOAA

TRI-CITIES AIRPORT, WA, United States (KPSC) 46-16N 119-07W 121M
May 25, 2019 - 10:53 AM EDT / 2019.05.25 1453 UTC
Wind: from the SSW (210 degrees) at 7 MPH (6 KT):0
Visibility: 10 mile(s):0
Sky conditions: clear
Temperature: 54.0 F (12.2 C)
Dew Point: 41.0 F (5.0 C)
Relative Humidity: 61%
Pressure (altimeter): 29.92 in. Hg (1013 hPa)
Pressure tendency: 0.02 inches (0.8 hPa) higher than three hours ago
ob: KPSC 251453Z 21006KT 10SM CLR 12/05 A2992 RMK AO2 SLP131 T01220050 50008
cycle: 15

Station Type Date Time Source
KPSC TAF 2019/05/25 12:36 UTC NOAA

TAF KPSC 251134Z 2512/2612 21011KT P6SM SCT090
FM252100 26009KT P6SM SCT150
FM260100 32011KT P6SM BKN090
FM260600 31007KT P6SM BKN070

Example: see airport list